Time;durP1;ratioP1;P1;durP2;ratioP2;P2;SDS_P1;SDS_P2;PMS_P1;PMS_P2;Temp;Humidity;BMP_temperature;BMP_pressure;BME280_temperature;BME280_humidity;BME280_pressure;Samples;Min_cycle;Max_cycle;Signal;HPM_P1;HPM_P2
2022/11/30 00:00:56;;;;;;;18.13;6.20;;;;;;;3.96;100.00;102424.78;5094825;28;20028;-82
2022/11/30 00:03:42;;;;;;;10.50;5.60;;;;;;;4.03;100.00;102428.03;5093860;28;20484;-80
2022/11/30 00:06:13;;;;;;;8.98;5.22;;;;;;;4.12;100.00;102432.09;5094144;28;20077;-80
2022/11/30 00:08:39;;;;;;;;;;;;;;;4.19;100.00;102429.16;5094466;28;20028;-80
2022/11/30 00:11:13;;;;;;;13.25;4.95;;;;;;;4.26;100.00;102436.84;5093844;28;19947;-80
2022/11/30 00:13:39;;;;;;;8.85;5.32;;;;;;;4.30;100.00;102435.81;5075571;28;20486;-82
2022/11/30 00:16:06;;;;;;;9.38;5.05;;;;;;;4.31;100.00;102438.38;5075696;28;20043;-82
2022/11/30 00:18:31;;;;;;;12.77;5.32;;;;;;;4.36;100.00;102443.47;5075149;28;20035;-80
2022/11/30 00:21:01;;;;;;;9.93;5.40;;;;;;;4.38;100.00;102433.75;5093686;28;20055;-80
2022/11/30 00:23:33;;;;;;;8.77;4.70;;;;;;;4.44;100.00;102436.13;5092911;28;20055;-82
2022/11/30 00:26:03;;;;;;;12.50;4.88;;;;;;;4.48;100.00;102431.59;5075623;28;20024;-82
2022/11/30 00:28:31;;;;;;;11.20;4.32;;;;;;;4.52;100.00;102431.44;5093209;28;20123;-80
2022/11/30 00:30:59;;;;;;;10.32;4.63;;;;;;;4.58;100.00;102432.94;5093532;28;20032;-80
2022/11/30 00:33:24;;;;;;;7.45;4.35;;;;;;;4.58;100.00;102428.53;5093103;28;20059;-81
2022/11/30 00:36:06;;;;;;;10.30;4.38;;;;;;;4.62;100.00;102433.69;5074815;28;20460;-81
2022/11/30 00:38:32;;;;;;;9.95;4.32;;;;;;;4.62;100.00;102426.63;5092740;28;20111;-81
2022/11/30 00:41:01;;;;;;;9.45;4.50;;;;;;;4.65;100.00;102428.28;5093295;28;20032;-80
2022/11/30 00:43:27;;;;;;;9.40;4.30;;;;;;;4.67;100.00;102421.16;5092939;28;20111;-81
2022/11/30 00:45:54;;;;;;;10.68;4.13;;;;;;;4.67;100.00;102427.31;5093447;28;20037;-81
2022/11/30 00:48:35;;;;;;;8.40;3.65;;;;;;;4.64;100.00;102422.16;5093815;28;20529;-80
2022/11/30 00:51:01;;;;;;;7.47;3.95;;;;;;;4.64;100.00;102427.41;5094123;28;20042;-82
2022/11/30 00:53:26;;;;;;;5.63;3.70;;;;;;;4.63;100.00;102427.47;5092697;28;20115;-82
2022/11/30 00:55:52;;;;;;;6.65;3.55;;;;;;;4.61;100.00;102421.41;5093354;28;20024;-82
2022/11/30 00:58:18;;;;;;;7.78;3.78;;;;;;;4.59;100.00;102426.75;5093289;28;20036;-81
2022/11/30 01:00:44;;;;;;;9.90;3.90;;;;;;;4.57;100.00;102428.63;5092520;28;20059;-80
2022/11/30 01:03:11;;;;;;;5.97;3.67;;;;;;;4.54;100.00;102424.31;5074074;28;20032;-80
2022/11/30 01:05:38;;;;;;;9.10;4.55;;;;;;;4.54;100.00;102426.09;5092902;28;20464;-80
2022/11/30 01:08:06;;;;;;;7.50;4.20;;;;;;;4.54;100.00;102432.22;5092955;28;20031;-80
2022/11/30 01:10:36;;;;;;;11.15;4.55;;;;;;;4.53;100.00;102433.13;5074506;28;20464;-81
2022/11/30 01:13:06;;;;;;;11.88;4.47;;;;;;;4.52;100.00;102433.19;5074474;28;20027;-78
2022/11/30 01:15:39;;;;;;;13.50;4.88;;;;;;;4.53;100.00;102434.91;5092502;28;20051;-82
2022/11/30 01:18:08;;;;;;;9.02;4.57;;;;;;;4.51;100.00;102427.06;5093097;28;20463;-80
2022/11/30 01:20:34;;;;;;;13.38;4.70;;;;;;;4.52;100.00;102434.06;5092237;28;20078;-82
2022/11/30 01:22:59;;;;;;;8.73;4.70;;;;;;;4.52;100.00;102439.34;5092941;28;20032;-80
2022/11/30 01:25:27;;;;;;;9.32;4.80;;;;;;;4.51;100.00;102444.63;5057767;28;20084;-79
2022/11/30 01:27:52;;;;;;;9.75;4.72;;;;;;;4.50;100.00;102435.03;5092615;28;20028;-81
2022/11/30 01:30:18;;;;;;;12.02;5.03;;;;;;;4.50;100.00;102443.78;5057850;28;20477;-80
2022/11/30 01:32:43;;;;;;;10.73;4.90;;;;;;;4.49;100.00;102438.59;5092366;28;20458;-81
2022/11/30 01:35:09;;;;;;;6.53;4.63;;;;;;;4.49;100.00;102441.22;5092467;28;20101;-80
2022/11/30 01:37:35;;;;;;;7.32;4.20;;;;;;;4.48;100.00;102435.09;5092491;28;20036;-80
2022/11/30 01:40:01;;;;;;;8.60;4.53;;;;;;;4.48;100.00;102435.09;5074640;28;20036;-79
2022/11/30 01:42:27;;;;;;;8.35;4.85;;;;;;;4.49;100.00;102443.84;5092163;28;20440;-78
2022/11/30 01:44:58;;;;;;;9.25;4.93;;;;;;;4.48;100.00;102436.84;5092675;28;20055;-80
2022/11/30 01:47:31;;;;;;;8.30;5.05;;;;;;;4.49;100.00;102438.59;5092560;28;20029;-80
2022/11/30 01:50:11;;;;;;;9.93;5.38;;;;;;;4.47;100.00;102440.44;5092691;28;20020;-80
2022/11/30 01:52:43;;;;;;;9.48;4.82;;;;;;;4.48;100.00;102443.00;5092116;28;20032;-80
2022/11/30 01:55:19;;;;;;;8.48;5.13;;;;;;;4.48;100.00;102440.38;5074332;28;20060;-80
2022/11/30 01:57:52;;;;;;;7.25;5.22;;;;;;;4.48;100.00;102436.84;5074075;28;20032;-79
2022/11/30 02:00:18;;;;;;;11.25;5.05;;;;;;;4.48;100.00;102436.84;5092731;28;20345;-79
2022/11/30 02:03:02;;;;;;;11.85;5.28;;;;;;;4.47;100.00;102432.53;5092079;28;20059;-79
2022/11/30 02:05:28;;;;;;;11.10;4.85;;;;;;;4.44;100.00;102446.69;5092444;28;20032;-79
2022/11/30 02:07:53;;;;;;;6.90;4.72;;;;;;;4.37;100.00;102442.56;5092293;28;20028;-80
2022/11/30 02:10:29;;;;;;;8.98;5.00;;;;;;;4.23;100.00;102446.59;5092141;28;20520;-79
2022/11/30 02:13:16;;;;;;;9.57;5.05;;;;;;;4.04;100.00;102438.50;5092527;28;20029;-80
2022/11/30 02:16:02;;;;;;;9.68;4.50;;;;;;;3.87;100.00;102430.41;5096024;28;20028;-79
2022/11/30 02:18:38;;;;;;;11.25;5.07;;;;;;;3.74;100.00;102431.75;5095593;28;20040;-79
2022/11/30 02:21:12;;;;;;;10.10;4.88;;;;;;;3.59;100.00;102430.53;5096322;28;20064;-79
2022/11/30 02:23:59;;;;;;;8.57;4.85;;;;;;;3.42;100.00;102429.38;5077220;28;20502;-79
2022/11/30 02:26:50;;;;;;;8.98;4.90;;;;;;;3.32;100.00;102433.22;5095598;28;20110;-79
2022/11/30 02:29:24;;;;;;;6.70;5.18;;;;;;;3.24;100.00;102440.50;5096039;28;20047;-79
2022/11/30 02:32:16;;;;;;;11.00;5.63;;;;;;;3.20;100.00;102439.75;5095318;28;20081;-79
2022/11/30 02:34:44;;;;;;;6.68;5.13;;;;;;;3.18;100.00;102441.59;5095123;28;20035;-81
2022/11/30 02:37:12;;;;;;;8.57;5.60;;;;;;;3.17;100.00;102439.88;5044482;28;20039;-82
2022/11/30 02:39:38;;;;;;;9.05;6.00;;;;;;;3.17;100.00;102440.72;5095271;28;20104;-81
2022/11/30 02:42:09;;;;;;;12.32;5.43;;;;;;;3.15;100.00;102439.03;5095504;28;20040;-81
2022/11/30 02:44:34;;;;;;;12.15;6.70;;;;;;;3.12;100.00;102440.03;5095620;28;20032;-82
2022/11/30 02:47:24;;;;;;;7.60;5.65;;;;;;;3.06;100.00;102434.97;5095443;28;20043;-81
2022/11/30 02:50:07;;;;;;;8.13;5.00;;;;;;;2.98;100.00;102437.84;5095112;28;20073;-79
2022/11/30 02:52:33;;;;;;;8.98;6.20;;;;;;;2.88;100.00;102441.72;5095477;28;20035;-81
2022/11/30 02:55:01;;;;;;;7.47;5.43;;;;;;;2.79;100.00;102442.84;5094603;28;20040;-80
2022/11/30 02:57:26;;;;;;;8.10;5.75;;;;;;;2.74;100.00;102449.16;5095237;28;20035;-79
2022/11/30 02:59:52;;;;;;;13.23;5.30;;;;;;;2.67;100.00;102451.13;5094814;28;20032;-79
2022/11/30 03:02:17;;;;;;;10.40;5.88;;;;;;;2.65;100.00;102450.31;5095567;28;20426;-79
2022/11/30 03:04:43;;;;;;;10.50;5.65;;;;;;;2.60;100.00;102449.63;5095143;28;20036;-81
2022/11/30 03:07:08;;;;;;;9.43;5.22;;;;;;;2.55;100.00;102452.34;5095145;28;20380;-81
2022/11/30 03:09:33;;;;;;;9.82;5.80;;;;;;;2.52;100.00;102444.56;5094949;28;20036;-81
2022/11/30 03:11:59;;;;;;;10.32;5.60;;;;;;;2.49;100.00;102442.03;5094573;28;20039;-78
2022/11/30 03:14:25;;;;;;;11.00;5.97;;;;;;;2.47;100.00;102447.34;5095001;28;20051;-80
2022/11/30 03:16:50;;;;;;;12.05;6.18;;;;;;;2.44;100.00;102454.47;5094230;28;20036;-79
2022/11/30 03:19:15;;;;;;;12.00;5.57;;;;;;;2.44;100.00;102454.47;5094641;28;20035;-80
2022/11/30 03:21:41;;;;;;;8.40;5.72;;;;;;;2.46;100.00;102457.91;5094524;28;20032;-79
2022/11/30 03:24:07;;;;;;;16.08;5.93;;;;;;;2.51;100.00;102456.00;5094282;28;20040;-79
2022/11/30 03:26:32;;;;;;;11.38;6.47;;;;;;;2.55;100.00;102452.34;5075888;28;20109;-79
2022/11/30 03:28:57;;;;;;;15.23;6.47;;;;;;;2.56;100.00;102455.88;5094267;28;20464;-81
2022/11/30 03:31:23;;;;;;;10.65;6.75;;;;;;;2.54;100.00;102461.16;5076530;28;20054;-80
2022/11/30 03:33:48;;;;;;;10.82;6.80;;;;;;;2.52;100.00;102455.06;5094334;28;20388;-81
2022/11/30 03:36:13;;;;;;;11.82;6.65;;;;;;;2.52;100.00;102467.38;5095288;28;20052;-81
2022/11/30 03:38:39;;;;;;;11.65;6.22;;;;;;;2.49;100.00;102465.69;5096443;28;20036;-80
2022/11/30 03:41:07;;;;;;;9.65;6.15;;;;;;;2.48;100.00;102469.25;5094107;28;20089;-81
2022/11/30 03:43:32;;;;;;;11.43;6.28;;;;;;;2.49;100.00;102463.06;5095038;28;20035;-79
2022/11/30 03:45:58;;;;;;;13.75;7.57;;;;;;;2.55;100.00;102467.28;5075897;28;20032;-81
2022/11/30 03:48:23;;;;;;;11.55;6.60;;;;;;;2.59;100.00;102459.25;5076058;28;20025;-80
2022/11/30 03:50:49;;;;;;;13.57;7.15;;;;;;;2.61;100.00;102460.06;5093824;28;20039;-81
2022/11/30 03:53:22;;;;;;;12.13;6.55;;;;;;;2.67;100.00;102469.50;5076289;28;20036;-81
2022/11/30 03:55:55;;;;;;;14.35;6.75;;;;;;;2.72;100.00;102469.41;5094252;28;20039;-81
2022/11/30 03:58:22;;;;;;;12.05;7.00;;;;;;;2.76;100.00;102466.63;5094125;28;20028;-81
2022/11/30 04:00:47;;;;;;;15.20;7.07;;;;;;;2.81;100.00;102467.31;5093597;28;20036;-81
2022/11/30 04:03:13;;;;;;;12.05;6.97;;;;;;;2.87;100.00;102468.91;5094113;28;20526;-79
2022/11/30 04:05:38;;;;;;;13.23;7.75;;;;;;;2.94;100.00;102474.81;5094125;28;20028;-79
2022/11/30 04:08:04;;;;;;;12.27;7.13;;;;;;;2.98;100.00;102472.03;5093673;28;20036;-79
2022/11/30 04:10:29;;;;;;;11.07;6.88;;;;;;;3.04;100.00;102481.50;5094321;28;20036;-79
2022/11/30 04:12:55;;;;;;;11.35;7.20;;;;;;;3.08;100.00;102475.22;5093410;28;20032;-79
2022/11/30 04:15:20;;;;;;;11.68;6.30;;;;;;;3.10;100.00;102476.03;5093633;28;20032;-80
2022/11/30 04:17:45;;;;;;;13.68;7.10;;;;;;;3.12;100.00;102481.22;5093420;28;20024;-83
2022/11/30 04:20:11;;;;;;;14.45;7.13;;;;;;;3.13;100.00;102475.06;5093798;28;20035;-80
2022/11/30 04:22:36;;;;;;;11.52;6.75;;;;;;;3.12;100.00;102476.84;5094467;28;20077;-80
2022/11/30 04:25:02;;;;;;;13.07;7.22;;;;;;;3.11;100.00;102479.53;5093128;28;20035;-80
2022/11/30 04:27:28;;;;;;;20.33;7.38;;;;;;;3.05;100.00;102477.97;5093489;28;20434;-80
2022/11/30 04:29:53;;;;;;;11.70;6.50;;;;;;;3.00;100.00;102480.75;5093196;28;20067;-80
2022/11/30 04:32:18;;;;;;;11.15;6.53;;;;;;;2.95;100.00;102477.38;5093205;28;20039;-80
2022/11/30 04:34:44;;;;;;;10.10;6.63;;;;;;;2.95;100.00;102480.00;5093325;28;20459;-80
2022/11/30 04:37:09;;;;;;;14.23;6.95;;;;;;;2.94;100.00;102480.06;5092991;28;20357;-80
2022/11/30 04:39:34;;;;;;;12.40;6.78;;;;;;;2.92;100.00;102485.38;5093334;28;20028;-80
2022/11/30 04:42:00;;;;;;;13.63;7.43;;;;;;;2.91;100.00;102481.03;5074982;28;20534;-80
2022/11/30 04:44:25;;;;;;;16.02;7.38;;;;;;;2.95;100.00;102476.53;5093399;28;20036;-80
2022/11/30 04:46:50;;;;;;;13.43;7.75;;;;;;;2.98;100.00;102484.31;5092986;28;20460;-81
2022/11/30 04:49:16;;;;;;;11.27;7.20;;;;;;;2.98;100.00;102484.31;5092989;28;20468;-80
2022/11/30 04:51:41;;;;;;;15.00;7.55;;;;;;;2.96;100.00;102488.78;5093447;28;20036;-80
2022/11/30 04:54:07;;;;;;;12.55;7.47;;;;;;;2.96;100.00;102488.78;5092830;28;20365;-80
2022/11/30 04:56:32;;;;;;;16.20;7.78;;;;;;;2.98;100.00;102489.56;5093269;28;20029;-80
2022/11/30 04:59:00;;;;;;;13.07;6.88;;;;;;;2.97;100.00;102486.09;5074677;28;20032;-81
2022/11/30 05:01:25;;;;;;;16.02;7.28;;;;;;;3.00;100.00;102487.75;5075278;28;20036;-80
2022/11/30 05:03:50;;;;;;;16.48;7.63;;;;;;;3.01;100.00;102489.47;5093397;28;20484;-80
2022/11/30 05:06:16;;;;;;;12.23;7.07;;;;;;;2.98;100.00;102486.94;5074838;28;20028;-80
2022/11/30 05:08:41;;;;;;;15.73;7.20;;;;;;;2.96;100.00;102494.03;5094487;28;20030;-80
2022/11/30 05:11:06;;;;;;;12.25;7.03;;;;;;;2.92;100.00;102492.41;5093183;28;20028;-80
2022/11/30 05:13:32;;;;;;;15.85;7.25;;;;;;;2.92;100.00;102492.41;5093239;28;20083;-79
2022/11/30 05:15:57;;;;;;;12.93;7.65;;;;;;;2.92;100.00;102493.25;5057725;28;20067;-79
2022/11/30 05:18:22;;;;;;;13.02;6.88;;;;;;;2.92;100.00;102492.41;5093177;28;20089;-78
2022/11/30 05:20:49;;;;;;;15.25;7.55;;;;;;;2.89;100.00;102492.50;5092656;28;20469;-80
2022/11/30 05:23:16;;;;;;;14.45;6.88;;;;;;;2.88;100.00;102491.66;5092509;28;20071;-80
2022/11/30 05:25:42;;;;;;;14.30;8.00;;;;;;;2.88;100.00;102494.28;5092814;28;20044;-80
2022/11/30 05:28:08;;;;;;;14.60;8.30;;;;;;;2.92;100.00;102490.63;5092499;28;20025;-80
2022/11/30 05:30:33;;;;;;;15.60;8.05;;;;;;;2.94;100.00;102495.84;5092849;28;20058;-80
2022/11/30 05:32:59;;;;;;;16.05;8.32;;;;;;;2.97;100.00;102498.38;5092435;28;20077;-80
2022/11/30 05:35:24;;;;;;;17.55;9.05;;;;;;;2.98;100.00;102495.69;5072360;28;20052;-80
2022/11/30 05:37:49;;;;;;;13.52;7.97;;;;;;;3.00;100.00;102506.16;5092517;28;20484;-80
2022/11/30 05:40:15;;;;;;;19.38;9.10;;;;;;;3.05;100.00;102506.03;5092288;28;20520;-80
2022/11/30 05:42:40;;;;;;;17.20;8.77;;;;;;;3.09;100.00;102505.88;5092772;28;20036;-80
2022/11/30 05:45:06;;;;;;;17.20;8.90;;;;;;;3.11;100.00;102504.06;5092367;28;20105;-79
2022/11/30 05:47:31;;;;;;;18.15;9.32;;;;;;;3.16;100.00;102504.78;5092352;28;20517;-80
2022/11/30 05:49:57;;;;;;;19.77;8.95;;;;;;;3.21;100.00;102495.84;5095757;28;20028;-82
2022/11/30 05:52:22;;;;;;;18.35;9.60;;;;;;;3.24;100.00;102503.63;5078414;28;20472;-78
2022/11/30 05:54:48;;;;;;;19.20;9.32;;;;;;;3.28;100.00;102508.75;5096620;28;20047;-78
2022/11/30 05:57:13;;;;;;;19.20;9.90;;;;;;;3.32;100.00;102517.41;5096458;28;20028;-78
2022/11/30 05:59:38;;;;;;;17.15;8.65;;;;;;;3.33;100.00;102520.00;5096404;28;20028;-80
2022/11/30 06:02:04;;;;;;;17.05;9.40;;;;;;;3.38;100.00;102521.63;5096059;28;20050;-79
2022/11/30 06:04:29;;;;;;;21.60;9.70;;;;;;;3.37;100.00;102519.91;5096416;28;20499;-79
2022/11/30 06:06:55;;;;;;;17.88;9.82;;;;;;;3.36;100.00;102521.69;5096405;28;20029;-79
2022/11/30 06:09:21;;;;;;;21.85;9.45;;;;;;;3.37;100.00;102526.00;5095819;28;20032;-80
2022/11/30 06:11:47;;;;;;;17.85;8.95;;;;;;;3.33;100.00;102520.00;5078231;28;20105;-80
2022/11/30 06:14:12;;;;;;;19.25;9.82;;;;;;;3.32;100.00;102523.53;5095740;28;20468;-80
2022/11/30 06:16:38;;;;;;;14.88;8.98;;;;;;;3.31;100.00;102528.84;5095705;28;20034;-80
2022/11/30 06:19:04;;;;;;;18.05;8.82;;;;;;;3.30;100.00;102525.38;5095613;28;20126;-80
2022/11/30 06:21:29;;;;;;;17.48;9.40;;;;;;;3.32;100.00;102523.53;5095919;28;20028;-80
2022/11/30 06:23:55;;;;;;;21.52;9.63;;;;;;;3.37;100.00;102528.63;5095942;28;20040;-80
2022/11/30 06:26:21;;;;;;;20.15;9.00;;;;;;;3.38;100.00;102521.63;5095676;28;20032;-80
2022/11/30 06:28:46;;;;;;;25.83;10.00;;;;;;;3.40;100.00;102519.78;5095886;28;20020;-80
2022/11/30 06:31:11;;;;;;;18.75;10.00;;;;;;;3.42;100.00;102517.94;5095331;28;20032;-80
2022/11/30 06:33:37;;;;;;;19.58;9.93;;;;;;;3.42;100.00;102531.13;5061088;28;20042;-79
2022/11/30 06:36:03;;;;;;;18.73;9.23;;;;;;;3.41;100.00;102535.53;5095466;28;20503;-83
2022/11/30 06:38:29;;;;;;;17.38;9.70;;;;;;;3.42;100.00;102537.25;5095523;28;20032;-80
2022/11/30 06:41:05;;;;;;;20.65;10.15;;;;;;;3.44;100.00;102537.19;5096049;28;20399;-79
2022/11/30 06:43:34;;;;;;;21.77;10.15;;;;;;;3.43;100.00;102536.31;5095631;28;20028;-78
2022/11/30 06:46:01;;;;;;;24.77;10.75;;;;;;;3.46;100.00;102540.63;5077687;28;20070;-80
2022/11/30 06:48:27;;;;;;;21.10;10.68;;;;;;;3.47;100.00;102537.09;5095160;28;20036;-80
2022/11/30 06:50:52;;;;;;;23.13;12.10;;;;;;;3.50;100.00;102540.47;5095465;28;20534;-80
2022/11/30 06:53:17;;;;;;;26.83;11.88;;;;;;;3.52;100.00;102540.41;5094873;28;20430;-81
2022/11/30 06:55:42;;;;;;;22.70;11.77;;;;;;;3.52;100.00;102545.69;5077178;28;20468;-79
2022/11/30 06:58:08;;;;;;;18.73;10.43;;;;;;;3.51;100.00;102534.31;5094614;28;20507;-79
2022/11/30 07:00:35;;;;;;;24.85;11.30;;;;;;;3.52;100.00;102543.06;5095276;28;20032;-79
2022/11/30 07:03:01;;;;;;;26.15;12.07;;;;;;;3.53;100.00;102539.53;5095402;28;20054;-80
2022/11/30 07:05:27;;;;;;;25.52;12.15;;;;;;;3.56;100.00;102555.22;5094564;28;20492;-78
2022/11/30 07:07:52;;;;;;;25.42;12.18;;;;;;;3.57;100.00;102542.91;5077332;28;20028;-80
2022/11/30 07:10:18;;;;;;;30.67;12.45;;;;;;;3.59;100.00;102547.22;5094487;28;20032;-81
2022/11/30 07:12:44;;;;;;;27.35;13.00;;;;;;;3.63;100.00;102550.63;5095086;28;20036;-80
2022/11/30 07:15:09;;;;;;;28.83;12.90;;;;;;;3.66;100.00;102555.78;5076517;28;20035;-80
2022/11/30 07:17:35;;;;;;;26.08;13.43;;;;;;;3.69;100.00;102550.41;5095007;28;20028;-79
2022/11/30 07:20:00;;;;;;;25.95;13.38;;;;;;;3.71;100.00;102553.81;5076584;28;20024;-77
2022/11/30 07:22:25;;;;;;;32.80;13.30;;;;;;;3.74;100.00;102558.97;5094188;28;20467;-79
2022/11/30 07:27:35;;;;;;;34.13;14.20;;;;;;;3.79;100.00;102572.00;5095291;28;20051;-79
2022/11/30 07:30:01;;;;;;;29.90;14.98;;;;;;;3.83;100.00;102569.19;5090032;28;20024;-79
2022/11/30 07:32:26;;;;;;;35.20;15.13;;;;;;;3.89;100.00;102568.97;5091251;28;20028;-79
2022/11/30 07:34:51;;;;;;;34.83;15.65;;;;;;;3.96;100.00;102585.44;5091423;28;20035;-78
2022/11/30 07:37:17;;;;;;;33.53;15.48;;;;;;;3.98;100.00;102575.69;5091428;28;20055;-79
2022/11/30 07:39:42;;;;;;;38.40;14.63;;;;;;;3.99;100.00;102584.50;5073709;28;20051;-80
2022/11/30 07:42:07;;;;;;;30.80;14.25;;;;;;;4.01;100.00;102583.50;5091448;28;20036;-79
2022/11/30 07:44:33;;;;;;;33.38;15.68;;;;;;;4.04;100.00;102587.81;5091259;28;20500;-81
2022/11/30 07:46:59;;;;;;;32.95;15.20;;;;;;;4.05;100.00;102589.53;5091915;28;20472;-78
2022/11/30 07:49:25;;;;;;;35.22;15.15;;;;;;;4.06;100.00;102585.97;5091243;28;20062;-74
2022/11/30 07:51:50;;;;;;;28.23;14.73;;;;;;;4.06;100.00;102585.97;5090627;28;20032;-73
2022/11/30 07:54:15;;;;;;;33.03;15.23;;;;;;;4.07;100.00;102590.34;5071341;28;20028;-73
2022/11/30 07:56:41;;;;;;;32.72;16.17;;;;;;;4.07;100.00;102590.34;5090730;28;20089;-75
2022/11/30 07:59:06;;;;;;;36.80;15.82;;;;;;;4.08;100.00;102588.56;5072805;28;20063;-76
2022/11/30 08:01:32;;;;;;;38.80;16.95;;;;;;;4.11;100.00;102599.00;5090550;28;20039;-73
2022/11/30 08:03:58;;;;;;;34.95;15.77;;;;;;;4.14;100.00;102601.53;5090448;28;20395;-76
2022/11/30 08:06:29;;;;;;;36.40;16.80;;;;;;;4.16;100.00;102600.53;5090729;28;20040;-76
2022/11/30 08:08:58;;;;;;;40.22;16.17;;;;;;;4.20;100.00;102607.44;5090688;28;20452;-78
2022/11/30 08:11:26;;;;;;;36.53;15.85;;;;;;;4.25;100.00;102607.25;5090202;28;20073;-77
2022/11/30 08:13:53;;;;;;;41.90;16.38;;;;;;;4.28;100.00;102607.16;5090976;28;20031;-74
2022/11/30 08:16:28;;;;;;;35.55;15.18;;;;;;;4.32;100.00;102619.31;5090397;28;20119;-75
2022/11/30 08:18:55;;;;;;;40.05;16.75;;;;;;;4.35;100.00;102613.91;5091056;28;20031;-78
2022/11/30 08:21:21;;;;;;;34.50;15.77;;;;;;;4.40;100.00;102616.38;5090469;28;20112;-77
2022/11/30 08:23:50;;;;;;;39.25;16.58;;;;;;;4.43;100.00;102621.56;5090660;28;20373;-78
2022/11/30 08:26:24;;;;;;;35.35;16.05;;;;;;;4.45;100.00;102621.50;5090815;28;20116;-77
2022/11/30 08:28:51;;;;;;;36.75;16.60;;;;;;;4.50;100.00;102625.69;5090158;28;20036;-77
2022/11/30 08:31:28;;;;;;;37.10;16.42;;;;;;;4.55;100.00;102620.25;5090734;28;20028;-74
2022/11/30 08:33:59;;;;;;;34.25;15.73;;;;;;;4.61;100.00;102621.81;5090616;28;20506;-75
2022/11/30 08:36:26;;;;;;;33.87;15.50;;;;;;;4.67;100.00;102624.22;5090062;28;20067;-77
2022/11/30 08:38:51;;;;;;;42.85;16.75;;;;;;;4.75;100.00;102630.06;5072174;28;20032;-78
2022/11/30 08:41:20;;;;;;;41.05;17.10;;;;;;;4.83;100.00;102622.72;5089908;28;20486;-78
2022/11/30 08:43:47;;;;;;;33.97;16.50;;;;;;;4.92;100.00;102634.69;5089912;28;20040;-77
2022/11/30 08:46:14;;;;;;;38.17;16.33;;;;;;;4.97;100.00;102634.53;5090090;28;20032;-77
2022/11/30 08:48:40;;;;;;;37.63;17.17;;;;;;;5.04;100.00;102633.38;5089805;28;20135;-77
2022/11/30 08:51:08;;;;;;;39.83;17.35;;;;;;;5.11;100.00;102632.22;5090165;28;20096;-77
2022/11/30 08:53:34;;;;;;;42.05;17.80;;;;;;;5.19;100.00;102634.56;5089072;28;20129;-78
2022/11/30 08:56:02;;;;;;;46.05;18.42;;;;;;;5.24;100.00;102638.75;5090182;28;20054;-78
2022/11/30 08:58:34;;;;;;;41.65;18.13;;;;;;;5.30;100.00;102637.66;5090068;28;20123;-77
2022/11/30 09:01:14;;;;;;;43.40;18.33;;;;;;;5.37;100.00;102644.38;5090536;28;20040;-77
2022/11/30 09:03:40;;;;;;;49.13;17.73;;;;;;;5.44;100.00;102645.00;5089456;28;20101;-78
2022/11/30 09:06:14;;;;;;;38.65;17.80;;;;;;;5.49;100.00;102645.66;5089371;28;20144;-79
2022/11/30 09:08:41;;;;;;;37.15;17.30;;;;;;;5.53;100.00;102649.91;5089555;28;20547;-77
2022/11/30 09:11:15;;;;;;;44.00;17.95;;;;;;;5.60;100.00;102650.53;5089732;28;20511;-75
2022/11/30 09:13:41;;;;;;;41.03;18.23;;;;;;;5.65;100.00;102649.41;5089244;28;20024;-78
2022/11/30 09:16:07;;;;;;;44.45;18.55;;;;;;;5.69;100.00;102652.78;5090147;28;20361;-77
2022/11/30 09:18:33;;;;;;;44.08;17.92;;;;;;;5.74;100.00;102665.81;5088588;28;20036;-77
2022/11/30 09:21:04;;;;;;;46.38;18.77;;;;;;;5.75;100.00;102660.47;5089666;28;20383;-75
2022/11/30 09:23:30;;;;;;;48.03;18.30;;;;;;;5.76;100.00;102656.91;5090580;28;20200;-79
2022/11/30 09:26:00;;;;;;;40.25;17.33;;;;;;;5.82;100.00;102656.66;5094109;28;20027;-78
2022/11/30 09:28:26;;;;;;;37.85;17.60;;;;;;;5.89;100.00;102656.38;5075338;28;20028;-78
2022/11/30 09:30:52;;;;;;;37.15;16.98;;;;;;;5.92;100.00;102657.09;5093561;28;20457;-80
2022/11/30 09:33:18;;;;;;;33.92;16.17;;;;;;;5.98;100.00;102659.53;5093359;28;20028;-75
2022/11/30 09:35:44;;;;;;;33.92;16.33;;;;;;;6.03;100.00;102663.75;5093689;28;20163;-77
2022/11/30 09:38:09;;;;;;;41.75;16.85;;;;;;;6.06;100.00;102669.78;5093837;28;20044;-78
2022/11/30 09:40:37;;;;;;;34.33;16.98;;;;;;;6.14;100.00;102674.75;5093241;28;20396;-80
2022/11/30 09:43:23;;;;;;;44.17;17.50;;;;;;;6.29;100.00;102673.22;5093668;28;20040;-77
2022/11/30 09:45:55;;;;;;;32.50;15.43;;;;;;;6.44;100.00;102669.91;5092711;28;20777;-78
2022/11/30 09:48:32;;;;;;;37.00;16.15;;;;;;;6.57;100.00;102670.25;5093607;28;20027;-79
2022/11/30 09:51:06;;;;;;;34.15;15.80;;;;;;;6.69;100.00;102676.78;5093382;28;20028;-78
2022/11/30 09:53:44;;;;;;;25.55;13.57;;;;;;;6.74;100.00;102680.06;5092000;28;20081;-81
2022/11/30 09:56:27;;;;;;;30.10;13.60;;;;;;;6.76;100.00;102679.97;5093497;28;20040;-74
2022/11/30 09:58:56;;;;;;;28.50;14.80;;;;;;;6.71;100.00;102688.13;5092101;28;20130;-83
2022/11/30 10:01:22;;;;;;;27.45;14.85;;;;;;;6.68;100.00;102686.47;5090413;28;20039;-75
2022/11/30 10:03:48;;;;;;;32.20;14.52;;;;;;;6.72;100.00;102684.56;5092384;28;20044;-81
2022/11/30 10:06:18;;;;;;;32.35;15.13;;;;;;;6.78;100.00;102683.44;5089570;28;20039;-78
2022/11/30 10:09:01;;;;;;;29.90;15.75;;;;;;;6.83;100.00;102692.84;5080968;28;20500;-78
2022/11/30 10:12:13;;;;;;;33.88;15.80;;;;;;;6.94;100.00;102686.22;5092953;28;20108;-77
2022/11/30 10:14:48;;;;;;;26.08;14.85;;;;;;;6.97;100.00;102686.97;5072619;28;20043;-76
2022/11/30 10:17:45;;;;;;;27.50;14.05;;;;;;;6.97;100.00;102680.78;5071953;28;20036;-75
2022/11/30 10:20:31;;;;;;;24.27;14.43;;;;;;;6.96;100.00;102682.59;5073918;28;20043;-75
2022/11/30 10:23:15;;;;;;;28.27;14.52;;;;;;;7.02;100.00;102681.44;5090186;28;20046;-77
2022/11/30 10:26:07;;;;;;;28.50;15.52;;;;;;;7.03;100.00;102681.38;5091657;28;20064;-75
2022/11/30 10:28:41;;;;;;;27.02;14.38;;;;;;;7.13;100.00;102684.44;5091356;28;20098;-75
2022/11/30 10:31:12;;;;;;;33.40;15.35;;;;;;;7.23;100.00;102676.94;5092690;28;20049;-74
2022/11/30 10:33:44;;;;;;;26.08;13.90;;;;;;;7.34;100.00;102673.78;5091819;28;20119;-81
2022/11/30 10:36:14;;;;;;;25.60;13.77;;;;;;;7.47;100.00;102669.59;5092262;28;20511;-74
2022/11/30 10:38:47;;;;;;;21.23;13.32;;;;;;;7.64;100.00;102663.47;5091904;28;20073;-77
2022/11/30 10:41:36;;;;;;;19.30;13.13;;;;;;;7.76;100.00;102667.31;5073741;28;20548;-75
2022/11/30 10:44:21;;;;;;;19.83;12.85;;;;;;;7.79;100.00;102663.66;5091771;28;20060;-75
2022/11/30 10:47:17;;;;;;;22.02;13.00;;;;;;;7.84;100.00;102656.38;5091340;28;20488;-74
2022/11/30 10:49:48;;;;;;;23.08;13.07;;;;;;;7.99;100.00;102658.22;5082792;28;20131;-77
2022/11/30 10:52:21;;;;;;;22.05;13.48;;;;;;;8.04;100.00;102653.53;5092026;28;20111;-74
2022/11/30 10:54:48;;;;;;;22.42;14.05;;;;;;;8.10;100.00;102652.38;5091500;28;20045;-76
2022/11/30 10:57:13;;;;;;;21.95;13.68;;;;;;;8.06;100.00;102661.41;5092042;28;20085;-77
2022/11/30 10:59:47;;;;;;;22.13;13.90;;;;;;;8.04;100.00;102645.59;5091512;28;20044;-79
2022/11/30 11:02:39;;;;;;;23.08;13.13;;;;;;;8.06;100.00;102645.50;5091971;28;20036;-77
2022/11/30 11:05:23;;;;;;;25.00;14.52;;;;;;;8.01;100.00;102645.75;5091483;28;20039;-82
2022/11/30 11:07:50;;;;;;;21.33;12.85;;;;;;;8.03;100.00;102646.53;5091892;28;20051;-80
2022/11/30 11:10:27;;;;;;;22.08;13.63;;;;;;;8.07;100.00;102647.22;5093086;28;20476;-80
2022/11/30 11:12:54;;;;;;;22.95;13.40;;;;;;;8.09;100.00;102643.56;5091780;28;20038;-77
2022/11/30 11:15:27;;;;;;;20.70;12.90;;;;;;;8.12;100.00;102642.53;5092293;28;20039;-80
2022/11/30 11:18:18;;;;;;;22.88;13.23;;;;;;;8.14;100.00;102643.34;5091546;28;20039;-76
2022/11/30 11:20:44;;;;;;;19.33;13.73;;;;;;;8.30;100.00;102636.28;5090288;28;20020;-81
2022/11/30 11:23:29;;;;;;;21.02;12.40;;;;;;;8.76;100.00;102642.75;5091295;28;20046;-76
2022/11/30 11:25:56;;;;;;;18.77;11.45;;;;;;;9.18;100.00;102644.88;5072690;28;20024;-75